createdAt,value
2023-04-21T00:00:33.604Z,6.57
2023-04-21T00:05:43.662Z,6.63
2023-04-21T00:10:48.079Z,5.00
2023-04-21T00:15:52.779Z,6.50
2023-04-21T00:20:59.049Z,6.13
2023-04-21T00:26:03.677Z,5.80
2023-04-21T00:31:08.494Z,5.82
2023-04-21T00:36:13.872Z,6.40
2023-04-21T00:41:20.609Z,6.10
2023-04-21T00:46:24.811Z,5.93
2023-04-21T00:51:33.227Z,6.82
2023-04-21T00:56:37.891Z,9.13
2023-04-21T01:01:42.061Z,8.90
2023-04-21T01:06:47.650Z,9.68
2023-04-21T01:12:04.538Z,10.38
2023-04-21T01:17:11.551Z,8.63
2023-04-21T01:22:18.309Z,9.70
2023-04-21T01:27:22.608Z,7.47
2023-04-21T01:32:30.412Z,6.40
2023-04-21T01:37:36.544Z,6.35
2023-04-21T01:42:43.666Z,6.05
2023-04-21T01:47:50.685Z,6.07
2023-04-21T01:52:56.296Z,6.63
2023-04-21T01:58:02.800Z,5.82
2023-04-21T02:03:07.435Z,5.78
2023-04-21T02:08:15.260Z,5.35
2023-04-21T02:13:25.665Z,6.70
2023-04-21T02:18:30.078Z,6.45
2023-04-21T02:23:35.599Z,6.28
2023-04-21T02:28:40.349Z,7.75
2023-04-21T02:33:45.215Z,6.55
2023-04-21T02:38:51.303Z,5.53
2023-04-21T02:43:56.278Z,5.90
2023-04-21T02:49:00.313Z,6.93
2023-04-21T02:54:05.829Z,7.32
2023-04-21T02:59:11.550Z,8.07
2023-04-21T03:04:17.577Z,7.97
2023-04-21T03:09:23.500Z,8.82
2023-04-21T03:14:27.646Z,5.93
2023-04-21T03:19:31.721Z,8.30
2023-04-21T03:24:37.266Z,7.53
2023-04-21T03:29:41.347Z,7.55
2023-04-21T03:34:45.596Z,8.50
2023-04-21T03:39:51.125Z,8.30
2023-04-21T03:44:57.058Z,7.45
2023-04-21T03:50:01.660Z,12.20
2023-04-21T03:55:11.844Z,10.27
2023-04-21T04:00:16.249Z,10.63
2023-04-21T04:05:20.353Z,11.57
2023-04-21T04:10:26.464Z,16.45
2023-04-21T04:15:30.510Z,18.88
2023-04-21T04:20:35.005Z,19.42
2023-04-21T04:25:40.389Z,18.23
2023-04-21T04:30:45.545Z,16.90
2023-04-21T04:35:51.322Z,21.40
2023-04-21T04:40:58.990Z,16.10
2023-04-21T04:46:04.993Z,17.38
2023-04-21T04:51:09.532Z,19.90
2023-04-21T04:56:15.335Z,18.60
2023-04-21T05:01:19.506Z,19.17
2023-04-21T05:06:23.596Z,18.38
2023-04-21T05:11:28.957Z,17.70
2023-04-21T05:16:34.524Z,15.48
2023-04-21T05:21:39.069Z,13.15
2023-04-21T05:26:44.779Z,14.20
2023-04-21T05:31:48.777Z,13.38
2023-04-21T05:36:55.864Z,10.35
2023-04-21T05:42:03.364Z,11.05
2023-04-21T05:47:08.165Z,12.55
2023-04-21T05:52:12.506Z,10.32
2023-04-21T05:57:19.309Z,8.45
2023-04-21T06:02:25.236Z,10.30
2023-04-21T06:07:29.372Z,9.02
2023-04-21T06:12:34.719Z,9.05
2023-04-21T06:17:39.681Z,8.35
2023-04-21T06:22:43.906Z,8.23
2023-04-21T06:27:49.533Z,8.63
2023-04-21T06:32:53.886Z,8.43
2023-04-21T06:37:58.513Z,9.63
2023-04-21T06:43:05.649Z,8.27
2023-04-21T06:48:09.724Z,8.25
2023-04-21T06:53:13.996Z,7.40
2023-04-21T06:58:21.105Z,7.82
2023-04-21T07:03:26.290Z,8.40
2023-04-21T07:08:30.472Z,6.53
2023-04-21T07:13:36.038Z,6.45
2023-04-21T07:18:43.058Z,6.47
2023-04-21T07:23:47.251Z,5.95
2023-04-21T07:28:55.450Z,5.63
2023-04-21T07:33:59.914Z,5.25
2023-04-21T07:39:04.406Z,5.45
2023-04-21T07:44:13.508Z,4.68
2023-04-21T07:49:18.632Z,4.68
2023-04-21T07:54:22.853Z,4.13
2023-04-21T07:59:28.485Z,6.18
2023-04-21T08:04:32.785Z,9.95
2023-04-21T08:09:37.657Z,5.22
2023-04-21T08:14:43.234Z,6.05
2023-04-21T08:19:48.016Z,6.10
2023-04-21T08:24:54.621Z,6.35
2023-04-21T08:30:00.378Z,4.88
2023-04-21T08:35:04.951Z,5.25
2023-04-21T08:40:10.095Z,6.57
2023-04-21T08:45:15.676Z,4.35
2023-04-21T08:50:19.766Z,5.70
2023-04-21T08:55:28.584Z,3.88
2023-04-21T09:00:34.356Z,3.60
2023-04-21T09:05:42.887Z,5.70
2023-04-21T09:11:03.269Z,6.30
2023-04-21T09:16:18.523Z,6.03
2023-04-21T09:21:32.026Z,5.45
2023-04-21T09:26:36.955Z,3.40
2023-04-21T09:31:45.881Z,3.25
2023-04-21T09:36:50.098Z,4.00
2023-04-21T09:41:54.305Z,3.00
2023-04-21T09:47:02.931Z,2.88
2023-04-21T09:52:19.052Z,3.90
2023-04-21T09:57:29.897Z,3.33
2023-04-21T10:02:37.452Z,5.15
2023-04-21T10:07:42.509Z,4.95
2023-04-21T10:12:47.840Z,4.13
2023-04-21T10:17:53.666Z,6.32
2023-04-21T10:22:58.819Z,6.20
2023-04-21T10:28:08.824Z,4.32
2023-04-21T10:33:14.542Z,8.45
2023-04-21T10:38:36.812Z,7.47
2023-04-21T10:43:49.521Z,5.97
2023-04-21T10:48:55.761Z,3.80
2023-04-21T10:54:00.070Z,5.25
2023-04-21T10:59:05.465Z,7.47
2023-04-21T11:04:17.248Z,5.05
2023-04-21T11:09:21.881Z,6.70
2023-04-21T11:14:26.148Z,8.45
2023-04-21T11:19:33.496Z,4.47
2023-04-21T11:24:37.790Z,2.88
2023-04-21T11:29:42.129Z,8.02
2023-04-21T11:34:47.845Z,6.18
2023-04-21T11:39:58.634Z,3.85
2023-04-21T11:45:02.619Z,6.95
2023-04-21T11:50:11.161Z,4.68
2023-04-21T11:55:19.576Z,9.57
2023-04-21T12:00:23.900Z,3.30
2023-04-21T12:05:36.848Z,4.10
2023-04-21T12:10:46.254Z,4.05
2023-04-21T12:15:50.943Z,3.38
2023-04-21T12:20:57.721Z,3.85
2023-04-21T12:26:02.147Z,2.85
2023-04-21T12:31:06.813Z,4.55
2023-04-21T12:36:14.966Z,3.63
2023-04-21T12:41:19.124Z,3.45
2023-04-21T12:46:23.466Z,4.30
2023-04-21T12:51:28.966Z,3.30
2023-04-21T12:56:33.508Z,4.53
2023-04-21T13:01:37.761Z,4.38
2023-04-21T13:06:44.903Z,4.60
2023-04-21T13:11:48.960Z,4.43
2023-04-21T13:16:53.925Z,3.35
2023-04-21T13:21:59.589Z,2.47
2023-04-21T13:27:03.852Z,4.30
2023-04-21T13:32:09.567Z,4.13
2023-04-21T13:37:17.351Z,6.15
2023-04-21T13:42:22.949Z,8.23
2023-04-21T13:47:27.158Z,7.30
2023-04-21T13:52:35.070Z,7.40
2023-04-21T13:57:40.064Z,7.28
2023-04-21T14:02:44.492Z,8.20
2023-04-21T14:07:50.177Z,7.10
2023-04-21T14:12:54.571Z,7.85
2023-04-21T14:17:58.857Z,7.40
2023-04-21T14:23:04.528Z,6.35
2023-04-21T14:28:08.937Z,8.55
2023-04-21T14:33:12.941Z,5.38
2023-04-21T14:38:20.968Z,5.25
2023-04-21T14:43:25.209Z,8.00
2023-04-21T14:48:29.833Z,6.90
2023-04-21T14:53:35.293Z,6.18
2023-04-21T14:58:39.404Z,4.32
2023-04-21T15:03:44.246Z,5.35
2023-04-21T15:08:51.096Z,5.85
2023-04-21T15:13:55.249Z,5.40
2023-04-21T15:19:01.137Z,4.47
2023-04-21T15:24:06.951Z,4.18
2023-04-21T15:29:13.304Z,4.63
2023-04-21T15:34:17.794Z,4.55
2023-04-21T15:39:23.568Z,4.05
2023-04-21T15:44:27.846Z,4.88
2023-04-21T15:49:31.926Z,5.30
2023-04-21T15:54:42.645Z,20.50
2023-04-21T15:59:47.019Z,15.65
2023-04-21T16:09:57.464Z,11.43
2023-04-21T16:15:16.135Z,7.20
2023-04-21T16:20:27.622Z,5.38
2023-04-21T16:25:33.427Z,7.15
2023-04-21T16:30:38.915Z,7.30
2023-04-21T16:35:45.170Z,5.32
2023-04-21T16:40:51.587Z,5.88
2023-04-21T16:45:56.356Z,6.65
2023-04-21T16:51:01.676Z,19.08
2023-04-21T16:56:07.949Z,30.45
2023-04-21T17:01:12.075Z,13.75
2023-04-21T17:06:21.590Z,15.02
2023-04-21T17:11:27.658Z,14.75
2023-04-21T17:16:32.224Z,6.40
2023-04-21T17:21:36.864Z,5.25
2023-04-21T17:26:42.576Z,4.95
2023-04-21T17:31:47.095Z,8.35
2023-04-21T17:36:52.416Z,5.85
2023-04-21T17:41:58.108Z,4.32
2023-04-21T17:47:03.562Z,5.30
2023-04-21T17:52:07.951Z,5.88
2023-04-21T17:57:13.899Z,9.35
2023-04-21T18:02:21.188Z,8.10
2023-04-21T18:07:25.648Z,5.72
2023-04-21T18:12:31.380Z,3.72
2023-04-21T18:17:37.163Z,4.05
2023-04-21T18:22:43.833Z,3.88
2023-04-21T18:27:49.406Z,4.15
2023-04-21T18:32:53.604Z,4.35
2023-04-21T18:37:57.812Z,5.05
2023-04-21T18:43:03.690Z,8.32
2023-04-21T18:48:07.917Z,3.83
2023-04-21T18:53:12.373Z,3.85
2023-04-21T18:58:18.300Z,5.00
2023-04-21T19:03:22.998Z,6.63
2023-04-21T19:08:40.605Z,6.78
2023-04-21T19:13:48.268Z,10.13
2023-04-21T19:18:52.322Z,10.63
2023-04-21T19:23:57.934Z,5.18
2023-04-21T19:29:03.742Z,6.70
2023-04-21T19:34:08.112Z,6.13
2023-04-21T19:39:12.274Z,6.32
2023-04-21T19:44:18.064Z,5.15
2023-04-21T19:49:22.434Z,9.57
2023-04-21T19:54:27.644Z,8.20
2023-04-21T19:59:34.643Z,7.85
2023-04-21T20:04:39.576Z,7.82
2023-04-21T20:09:44.043Z,5.68
2023-04-21T20:14:49.851Z,7.65
2023-04-21T20:19:54.695Z,7.38
2023-04-21T20:24:59.587Z,8.32
2023-04-21T20:30:05.822Z,10.35
2023-04-21T20:35:12.387Z,8.57
2023-04-21T20:40:18.931Z,5.30
2023-04-21T20:45:26.261Z,5.35
2023-04-21T20:50:30.457Z,7.03
2023-04-21T20:55:34.727Z,6.28
2023-04-21T21:00:40.267Z,6.15
2023-04-21T21:05:44.603Z,4.72
2023-04-21T21:10:50.029Z,4.93
2023-04-21T21:15:55.533Z,4.38
2023-04-21T21:20:59.666Z,8.10
2023-04-21T21:26:03.880Z,5.93
2023-04-21T21:31:10.325Z,5.60
2023-04-21T21:36:15.940Z,6.85
2023-04-21T21:41:20.510Z,6.55
2023-04-21T21:46:26.272Z,6.28
2023-04-21T21:51:30.317Z,6.03
2023-04-21T21:56:34.551Z,6.78
2023-04-21T22:01:42.301Z,9.13
2023-04-21T22:06:46.625Z,6.00
2023-04-21T22:11:50.957Z,6.22
2023-04-21T22:16:57.465Z,8.70
2023-04-21T22:22:01.613Z,7.18
2023-04-21T22:27:05.830Z,6.03
2023-04-21T22:32:12.083Z,5.15
2023-04-21T22:37:16.471Z,4.78
2023-04-21T22:42:20.553Z,5.55
2023-04-21T22:47:26.197Z,5.10
2023-04-21T22:52:33.274Z,5.53
2023-04-21T22:57:38.105Z,7.57
2023-04-21T23:02:43.724Z,7.20
2023-04-21T23:07:47.930Z,6.43
2023-04-21T23:12:52.033Z,6.53
2023-04-21T23:17:57.455Z,4.95
2023-04-21T23:23:01.905Z,6.00
2023-04-21T23:28:07.958Z,5.95
2023-04-21T23:33:13.422Z,4.93
2023-04-21T23:38:17.625Z,5.57
2023-04-21T23:43:23.448Z,6.05
2023-04-21T23:48:29.131Z,4.97
2023-04-21T23:53:33.204Z,5.60
2023-04-21T23:58:37.454Z,5.38
